Machida, Japan
Current Conditions -  °F | °C
As of 6:58 AM on Sunday 26 Oct 2014 (Local Time) from RJTY Reporting Station
Clear Clear  
Wind Chill: 13°   Ceiling: Unl
Heat Index: 13°   Visibility: 10mi
Dew Point: 12°   Wind: 0mph
Humidity: 96%   Direction: NA
Pressure: 30.24"   Gusts: NA
Location:  35.56°N, 139.43°E
Report Text: RJTY 252158Z AUTO 00000KT 10SM CLR 13/12 A3024 RMK AO2 SLP243 T01260119
Loading
Personal Weather Stations






























Interactive Weather Map
Tropical Storm Tracking
New forecast layout! Learn more

10-Day Weather Forecast

Advertisements
Track Severe Weather on mobile